createdAt,value
2023-02-16T00:01:25.803Z,97564.38
2023-02-16T00:03:55.809Z,97563.81
2023-02-16T00:06:24.730Z,97564.59
2023-02-16T00:08:56.600Z,97570.53
2023-02-16T00:11:49.794Z,97559.44
2023-02-16T00:14:18.687Z,97560.44
2023-02-16T00:16:48.060Z,97563.44
2023-02-16T00:19:22.455Z,97565.31
2023-02-16T00:21:52.850Z,97566.50
2023-02-16T00:24:21.482Z,97570.88
2023-02-16T00:26:50.443Z,97563.28
2023-02-16T00:29:23.757Z,97566.19
2023-02-16T00:31:53.997Z,97564.84
2023-02-16T00:34:29.514Z,97561.88
2023-02-16T00:37:00.286Z,97556.66
2023-02-16T00:39:29.432Z,97556.59
2023-02-16T00:42:02.206Z,97564.81
2023-02-16T00:44:37.117Z,97566.09
2023-02-16T00:47:19.394Z,97564.13
2023-02-16T00:49:48.180Z,97560.19
2023-02-16T00:52:35.444Z,97561.16
2023-02-16T00:55:07.582Z,97560.28
2023-02-16T00:57:41.133Z,97559.31
2023-02-16T01:00:17.928Z,97554.81
2023-02-16T01:02:50.491Z,97558.50
2023-02-16T01:05:21.440Z,97560.59
2023-02-16T01:08:07.636Z,97568.56
2023-02-16T01:10:55.691Z,97571.41
2023-02-16T01:13:24.807Z,97575.38
2023-02-16T01:15:53.041Z,97572.06
2023-02-16T01:18:23.442Z,97560.06
2023-02-16T01:20:52.889Z,97574.31
2023-02-16T01:23:21.050Z,97565.91
2023-02-16T01:25:49.115Z,97563.38
2023-02-16T01:28:24.554Z,97571.72
2023-02-16T01:30:54.394Z,97576.56
2023-02-16T01:33:24.678Z,97566.44
2023-02-16T01:35:54.781Z,97555.78
2023-02-16T01:38:26.632Z,97558.84
2023-02-16T01:41:22.538Z,97552.13
2023-02-16T01:43:56.203Z,97555.34
2023-02-16T01:46:40.034Z,97552.50
2023-02-16T01:49:14.244Z,97559.75
2023-02-16T01:51:52.851Z,97547.75
2023-02-16T01:54:36.002Z,97556.38
2023-02-16T01:57:12.011Z,97554.75
2023-02-16T02:00:12.644Z,97558.63
2023-02-16T02:02:50.486Z,97554.75
2023-02-16T02:05:37.161Z,97544.69
2023-02-16T02:08:21.229Z,97546.19
2023-02-16T02:11:04.167Z,97558.09
2023-02-16T02:13:42.285Z,97543.66
2023-02-16T02:16:12.607Z,97545.44
2023-02-16T02:18:40.719Z,97548.47
2023-02-16T02:21:56.226Z,97542.38
2023-02-16T02:25:12.762Z,97541.63
2023-02-16T02:27:45.743Z,97542.31
2023-02-16T02:30:33.346Z,97539.72
2023-02-16T02:33:33.935Z,97533.22
2023-02-16T02:36:19.976Z,97524.94
2023-02-16T02:39:05.223Z,97534.72
2023-02-16T02:41:58.900Z,97534.84
2023-02-16T02:44:30.816Z,97525.56
2023-02-16T02:46:59.148Z,97536.19
2023-02-16T02:49:27.354Z,97534.09
2023-02-16T02:51:55.715Z,97532.41
2023-02-16T02:54:47.182Z,97526.59
2023-02-16T02:57:40.064Z,97527.53
2023-02-16T03:00:36.813Z,97528.53
2023-02-16T03:03:10.045Z,97516.59
2023-02-16T03:05:42.375Z,97518.84
2023-02-16T03:08:15.351Z,97514.38
2023-02-16T03:11:07.960Z,97519.47
2023-02-16T03:13:39.854Z,97521.72
2023-02-16T03:16:17.591Z,97520.81
2023-02-16T03:19:05.279Z,97521.06
2023-02-16T03:21:53.156Z,97514.38
2023-02-16T03:24:45.030Z,97515.03
2023-02-16T03:27:34.295Z,97522.47
2023-02-16T03:30:04.967Z,97519.78
2023-02-16T03:32:35.036Z,97520.13
2023-02-16T03:35:03.666Z,97519.88
2023-02-16T03:37:32.719Z,97523.44
2023-02-16T03:40:18.277Z,97521.47
2023-02-16T03:42:50.886Z,97520.63
2023-02-16T03:45:19.803Z,97515.28
2023-02-16T03:47:49.232Z,97518.22
2023-02-16T03:50:17.532Z,97521.63
2023-02-16T03:52:45.603Z,97526.31
2023-02-16T03:55:14.185Z,97521.19
2023-02-16T03:57:42.272Z,97532.28
2023-02-16T04:00:12.047Z,97531.97
2023-02-16T04:02:42.595Z,97526.06
2023-02-16T04:05:11.986Z,97521.88
2023-02-16T04:07:40.036Z,97532.84
2023-02-16T04:10:08.698Z,97536.19
2023-02-16T04:12:39.725Z,97534.25
2023-02-16T04:15:10.992Z,97534.94
2023-02-16T04:17:39.216Z,97530.00
2023-02-16T04:20:09.595Z,97533.81
2023-02-16T04:22:39.000Z,97532.22
2023-02-16T04:25:08.539Z,97534.69
2023-02-16T04:27:38.070Z,97534.56
2023-02-16T04:30:08.715Z,97537.56
2023-02-16T04:32:36.808Z,97538.59
2023-02-16T04:35:05.874Z,97538.72
2023-02-16T04:37:34.328Z,97540.78
2023-02-16T04:40:04.088Z,97542.50
2023-02-16T04:42:32.109Z,97538.91
2023-02-16T04:45:00.381Z,97531.56
2023-02-16T04:47:28.736Z,97546.63
2023-02-16T04:49:56.894Z,97537.19
2023-02-16T04:52:25.057Z,97540.44
2023-02-16T04:54:53.105Z,97542.53
2023-02-16T04:57:24.126Z,97545.28
2023-02-16T04:59:52.159Z,97541.78
2023-02-16T05:02:20.220Z,97538.81
2023-02-16T05:04:48.300Z,97537.38
2023-02-16T05:07:16.432Z,97540.56
2023-02-16T05:09:45.149Z,97532.78
2023-02-16T05:12:30.702Z,97539.50
2023-02-16T05:15:00.143Z,97531.53
2023-02-16T05:17:28.698Z,97533.16
2023-02-16T05:19:59.220Z,97535.41
2023-02-16T05:22:32.307Z,97527.91
2023-02-16T05:25:00.315Z,97536.31
2023-02-16T05:27:31.115Z,97535.94
2023-02-16T05:30:00.762Z,97540.53
2023-02-16T05:32:28.953Z,97536.22
2023-02-16T05:34:57.103Z,97534.69
2023-02-16T05:37:25.241Z,97540.06
2023-02-16T05:39:53.771Z,97541.56
2023-02-16T05:42:21.882Z,97539.44
2023-02-16T05:44:50.459Z,97541.00
2023-02-16T05:47:19.957Z,97552.81
2023-02-16T05:49:48.006Z,97542.38
2023-02-16T05:52:16.051Z,97553.81
2023-02-16T05:54:44.091Z,97552.97
2023-02-16T05:57:12.111Z,97551.25
2023-02-16T05:59:40.169Z,97562.28
2023-02-16T06:02:09.774Z,97563.34
2023-02-16T06:04:39.185Z,97568.69
2023-02-16T06:07:07.247Z,97562.50
2023-02-16T06:09:35.338Z,97569.44
2023-02-16T06:12:03.449Z,97567.09
2023-02-16T06:14:31.624Z,97568.38
2023-02-16T06:17:01.561Z,97569.19
2023-02-16T06:19:29.606Z,97574.78
2023-02-16T06:21:59.005Z,97572.97
2023-02-16T06:24:27.265Z,97577.00
2023-02-16T06:26:55.328Z,97584.81
2023-02-16T06:29:23.608Z,97585.84
2023-02-16T06:31:51.745Z,97584.31
2023-02-16T06:34:19.923Z,97584.69
2023-02-16T06:36:47.946Z,97587.28
2023-02-16T06:39:17.327Z,97580.69
2023-02-16T06:41:45.358Z,97590.81
2023-02-16T06:44:16.643Z,97592.44
2023-02-16T06:46:46.586Z,97585.47
2023-02-16T06:49:17.947Z,97589.31
2023-02-16T06:51:47.148Z,97585.75
2023-02-16T06:54:17.201Z,97584.69
2023-02-16T06:56:45.309Z,97586.50
2023-02-16T06:59:14.076Z,97594.81
2023-02-16T07:01:44.245Z,97593.34
2023-02-16T07:04:13.647Z,97591.75
2023-02-16T07:06:41.692Z,97591.75
2023-02-16T07:09:11.625Z,97595.72
2023-02-16T07:11:42.403Z,97597.06
2023-02-16T07:14:10.609Z,97588.53
2023-02-16T07:16:38.836Z,97588.69
2023-02-16T07:19:07.048Z,97594.81
2023-02-16T07:21:35.274Z,97592.72
2023-02-16T07:24:03.558Z,97598.22
2023-02-16T07:26:31.737Z,97589.09
2023-02-16T07:29:01.151Z,97602.03
2023-02-16T07:31:29.237Z,97594.88
2023-02-16T07:33:57.312Z,97600.69
2023-02-16T07:36:25.420Z,97604.22
2023-02-16T07:38:54.931Z,97601.09
2023-02-16T07:41:23.366Z,97604.44
2023-02-16T07:43:51.372Z,97611.22
2023-02-16T07:46:20.818Z,97610.19
2023-02-16T07:48:49.643Z,97611.34
2023-02-16T07:51:23.093Z,97617.41
2023-02-16T07:53:51.252Z,97608.41
2023-02-16T07:56:22.020Z,97616.00
2023-02-16T07:58:52.202Z,97617.94
2023-02-16T08:01:22.483Z,97620.34
2023-02-16T08:03:51.056Z,97610.63
2023-02-16T08:06:20.010Z,97617.56
2023-02-16T08:08:48.343Z,97618.59
2023-02-16T08:11:19.399Z,97617.00
2023-02-16T08:13:48.334Z,97619.34
2023-02-16T08:16:20.117Z,97617.75
2023-02-16T08:18:50.799Z,97616.97
2023-02-16T08:21:21.736Z,97617.13
2023-02-16T08:23:55.354Z,97610.59
2023-02-16T08:26:25.669Z,97622.69
2023-02-16T08:28:56.394Z,97622.19
2023-02-16T08:31:28.410Z,97626.28
2023-02-16T08:34:01.940Z,97623.81
2023-02-16T08:36:33.885Z,97618.22
2023-02-16T08:39:04.155Z,97619.00
2023-02-16T08:41:35.538Z,97621.72
2023-02-16T08:44:05.036Z,97612.69
2023-02-16T08:46:35.717Z,97619.84
2023-02-16T08:49:05.459Z,97616.66
2023-02-16T08:51:37.240Z,97616.97
2023-02-16T08:54:08.092Z,97615.94
2023-02-16T08:56:36.889Z,97614.72
2023-02-16T08:59:05.167Z,97615.00
2023-02-16T09:01:33.287Z,97617.22
2023-02-16T09:04:01.388Z,97617.16
2023-02-16T09:06:30.814Z,97618.41
2023-02-16T09:08:59.220Z,97615.28
2023-02-16T09:11:27.264Z,97617.91
2023-02-16T09:13:55.343Z,97613.88
2023-02-16T09:16:27.944Z,97610.47
2023-02-16T09:18:57.309Z,97609.03
2023-02-16T09:21:26.889Z,97617.94
2023-02-16T09:23:58.261Z,97610.66
2023-02-16T09:26:29.219Z,97612.22
2023-02-16T09:28:58.885Z,97617.50
2023-02-16T09:31:30.871Z,97610.16
2023-02-16T09:34:04.924Z,97611.63
2023-02-16T09:36:33.721Z,97608.69
2023-02-16T09:39:03.441Z,97608.34
2023-02-16T09:41:51.796Z,97606.94
2023-02-16T09:44:31.080Z,97600.88
2023-02-16T09:47:03.758Z,97602.91
2023-02-16T09:49:37.057Z,97604.03
2023-02-16T09:52:17.553Z,97591.75
2023-02-16T09:54:53.505Z,97593.06
2023-02-16T09:57:42.042Z,97594.84
2023-02-16T10:00:25.482Z,97592.50
2023-02-16T10:03:00.368Z,97596.47
2023-02-16T10:05:42.164Z,97597.50
2023-02-16T10:08:16.555Z,97588.66
2023-02-16T10:10:50.546Z,97593.69
2023-02-16T10:13:28.144Z,97592.72
2023-02-16T10:15:59.588Z,97589.53
2023-02-16T10:18:34.306Z,97596.56
2023-02-16T10:21:07.879Z,97594.34
2023-02-16T10:23:47.727Z,97589.59
2023-02-16T10:26:24.485Z,97592.25
2023-02-16T10:28:56.473Z,97592.06
2023-02-16T10:31:31.222Z,97590.28
2023-02-16T10:34:23.187Z,97595.81
2023-02-16T10:37:15.034Z,97584.47
2023-02-16T10:39:51.881Z,97583.06
2023-02-16T10:42:30.852Z,97577.44
2023-02-16T10:45:09.981Z,97583.56
2023-02-16T10:47:41.894Z,97570.94
2023-02-16T10:50:22.821Z,97578.09
2023-02-16T10:52:53.032Z,97575.44
2023-02-16T10:55:21.062Z,97575.06
2023-02-16T10:57:58.242Z,97564.28
2023-02-16T11:00:49.615Z,97569.16
2023-02-16T11:03:19.628Z,97568.97
2023-02-16T11:05:47.779Z,97561.81
2023-02-16T11:08:17.896Z,97565.69
2023-02-16T11:10:50.828Z,97568.13
2023-02-16T11:13:29.863Z,97563.06
2023-02-16T11:16:02.552Z,97561.63
2023-02-16T11:18:36.395Z,97560.38
2023-02-16T11:21:07.426Z,97557.50
2023-02-16T11:23:38.524Z,97550.19
2023-02-16T11:26:22.415Z,97556.06
2023-02-16T11:28:53.040Z,97554.63
2023-02-16T11:31:33.541Z,97549.31
2023-02-16T11:34:06.186Z,97545.81
2023-02-16T11:36:39.121Z,97546.59
2023-02-16T11:39:16.806Z,97543.47
2023-02-16T11:41:47.116Z,97535.28
2023-02-16T11:44:28.449Z,97525.63
2023-02-16T11:46:57.474Z,97528.69
2023-02-16T11:49:34.069Z,97520.38
2023-02-16T11:52:18.285Z,97523.03
2023-02-16T11:54:50.643Z,97514.03
2023-02-16T11:57:26.901Z,97506.66
2023-02-16T11:59:57.771Z,97497.84
2023-02-16T12:03:11.563Z,97504.34
2023-02-16T12:05:54.787Z,97507.44
2023-02-16T12:08:36.779Z,97507.94
2023-02-16T12:11:28.105Z,97509.03
2023-02-16T12:14:22.327Z,97495.56
2023-02-16T12:17:01.826Z,97496.16
2023-02-16T12:19:40.924Z,97496.16
2023-02-16T12:22:29.138Z,97496.56
2023-02-16T12:25:19.754Z,97488.53
2023-02-16T12:27:55.840Z,97486.81
2023-02-16T12:30:46.220Z,97478.19
2023-02-16T12:33:40.839Z,97475.28
2023-02-16T12:36:29.737Z,97468.75
2023-02-16T12:39:12.212Z,97464.09
2023-02-16T12:41:54.781Z,97458.56
2023-02-16T12:44:33.387Z,97464.09
2023-02-16T12:47:05.365Z,97464.09
2023-02-16T12:49:47.603Z,97460.03
2023-02-16T12:52:33.921Z,97454.84
2023-02-16T12:55:19.092Z,97445.66
2023-02-16T12:57:57.998Z,97445.84
2023-02-16T13:00:37.518Z,97435.81
2023-02-16T13:03:24.993Z,97436.94
2023-02-16T13:06:08.168Z,97435.94
2023-02-16T13:08:44.888Z,97435.88
2023-02-16T13:11:22.205Z,97437.78
2023-02-16T13:13:53.403Z,97426.00
2023-02-16T13:16:30.385Z,97419.81
2023-02-16T13:18:59.725Z,97421.06
2023-02-16T13:22:13.775Z,97431.72
2023-02-16T13:24:56.737Z,97422.56
2023-02-16T13:27:38.092Z,97420.91
2023-02-16T13:30:45.817Z,97427.63
2023-02-16T13:33:44.291Z,97421.50
2023-02-16T13:36:43.299Z,97411.28
2023-02-16T13:40:14.508Z,97420.91
2023-02-16T13:43:20.924Z,97419.41
2023-02-16T13:45:53.649Z,97423.50
2023-02-16T13:48:29.696Z,97423.94
2023-02-16T13:51:01.638Z,97424.38
2023-02-16T13:53:37.713Z,97421.00
2023-02-16T13:56:36.246Z,97418.22
2023-02-16T13:59:59.567Z,97421.22
2023-02-16T14:03:00.163Z,97424.63
2023-02-16T14:05:36.651Z,97430.31
2023-02-16T14:08:24.409Z,97425.28
2023-02-16T14:11:11.949Z,97435.88
2023-02-16T14:13:51.460Z,97432.44
2023-02-16T14:16:34.417Z,97440.59
2023-02-16T14:19:17.593Z,97428.81
2023-02-16T14:21:48.122Z,97435.09
2023-02-16T14:24:32.607Z,97436.72
2023-02-16T14:27:03.999Z,97440.22
2023-02-16T14:29:37.814Z,97441.50
2023-02-16T14:32:23.331Z,97436.84
2023-02-16T14:34:57.708Z,97445.19
2023-02-16T14:37:39.213Z,97442.94
2023-02-16T14:40:23.679Z,97443.38
2023-02-16T14:42:57.159Z,97446.66
2023-02-16T14:46:11.489Z,97449.16
2023-02-16T14:49:39.885Z,97445.88
2023-02-16T14:53:06.688Z,97450.16
2023-02-16T14:56:02.994Z,97442.66
2023-02-16T14:58:39.002Z,97446.53
2023-02-16T15:01:14.722Z,97442.66
2023-02-16T15:03:50.186Z,97437.38
2023-02-16T15:06:31.709Z,97437.16
2023-02-16T15:09:03.212Z,97432.91
2023-02-16T15:11:35.761Z,97426.81
2023-02-16T15:14:11.097Z,97425.38
2023-02-16T15:16:42.087Z,97424.75
2023-02-16T15:19:18.575Z,97421.94
2023-02-16T15:21:47.950Z,97417.84
2023-02-16T15:24:25.004Z,97406.63
2023-02-16T15:27:01.501Z,97396.66
2023-02-16T15:29:30.576Z,97406.25
2023-02-16T15:32:01.016Z,97414.22
2023-02-16T15:34:36.045Z,97416.44
2023-02-16T15:37:29.409Z,97425.22
2023-02-16T15:40:23.083Z,97415.06
2023-02-16T15:42:46.226Z,97420.38
2023-02-16T15:45:30.665Z,97413.25
2023-02-16T15:48:15.317Z,97412.44
2023-02-16T15:50:44.457Z,97417.91
2023-02-16T15:53:16.521Z,97408.38
2023-02-16T15:55:47.369Z,97410.81
2023-02-16T15:58:16.985Z,97405.31
2023-02-16T16:00:47.700Z,97406.94
2023-02-16T16:03:18.303Z,97406.16
2023-02-16T16:06:00.494Z,97395.97
2023-02-16T16:08:31.719Z,97399.47
2023-02-16T16:11:00.157Z,97402.72
2023-02-16T16:13:31.663Z,97405.38
2023-02-16T16:16:04.512Z,97405.38
2023-02-16T16:18:44.372Z,97400.91
2023-02-16T16:21:24.701Z,97407.22
2023-02-16T16:24:04.165Z,97407.00
2023-02-16T16:26:35.572Z,97412.50
2023-02-16T16:29:05.415Z,97405.41
2023-02-16T16:31:43.472Z,97404.19
2023-02-16T16:34:33.364Z,97401.31
2023-02-16T16:37:03.827Z,97398.91
2023-02-16T16:39:36.687Z,97399.91
2023-02-16T16:42:23.214Z,97405.63
2023-02-16T16:44:59.440Z,97407.66
2023-02-16T16:47:33.005Z,97408.88
2023-02-16T16:50:05.728Z,97408.88
2023-02-16T16:52:43.844Z,97403.22
2023-02-16T16:55:37.111Z,97412.56
2023-02-16T16:58:08.148Z,97409.91
2023-02-16T17:00:40.461Z,97401.19
2023-02-16T17:03:14.482Z,97398.13
2023-02-16T17:05:43.915Z,97407.28
2023-02-16T17:08:13.363Z,97411.53
2023-02-16T17:10:43.577Z,97416.81
2023-02-16T17:13:17.461Z,97411.97
2023-02-16T17:15:52.592Z,97419.88
2023-02-16T17:18:23.378Z,97423.53
2023-02-16T17:20:53.456Z,97424.75
2023-02-16T17:23:23.457Z,97421.50
2023-02-16T17:25:53.935Z,97423.97
2023-02-16T17:28:22.631Z,97427.19
2023-02-16T17:30:50.653Z,97421.69
2023-02-16T17:33:18.722Z,97429.00
2023-02-16T17:35:46.836Z,97424.53
2023-02-16T17:38:21.008Z,97433.09
2023-02-16T17:40:50.695Z,97432.66
2023-02-16T17:43:21.991Z,97437.13
2023-02-16T17:45:50.982Z,97437.13
2023-02-16T17:48:22.185Z,97443.22
2023-02-16T17:50:51.502Z,97450.53
2023-02-16T17:53:22.555Z,97453.78
2023-02-16T17:55:55.606Z,97447.69
2023-02-16T17:58:26.305Z,97452.13
2023-02-16T18:00:54.909Z,97454.38
2023-02-16T18:03:24.994Z,97449.28
2023-02-16T18:05:53.851Z,97451.53
2023-02-16T18:08:21.926Z,97448.88
2023-02-16T18:10:53.483Z,97447.66
2023-02-16T18:13:23.728Z,97447.03
2023-02-16T18:15:52.411Z,97448.66
2023-02-16T18:18:21.524Z,97451.69
2023-02-16T18:20:50.085Z,97447.41
2023-02-16T18:23:18.157Z,97450.69
2023-02-16T18:25:46.268Z,97450.88
2023-02-16T18:28:18.305Z,97450.06
2023-02-16T18:30:49.233Z,97453.91
2023-02-16T18:33:17.795Z,97460.22
2023-02-16T18:35:45.851Z,97456.94
2023-02-16T18:38:14.119Z,97456.75
2023-02-16T18:43:37.282Z,97455.53
2023-02-16T18:46:09.632Z,97452.09
2023-02-16T18:48:43.127Z,97452.09
2023-02-16T18:51:12.728Z,97457.13
2023-02-16T18:53:41.436Z,97459.19
2023-02-16T18:56:12.029Z,97464.06
2023-02-16T18:58:40.108Z,97455.31
2023-02-16T19:01:18.146Z,97456.16
2023-02-16T19:03:46.234Z,97464.25
2023-02-16T19:06:14.250Z,97458.78
2023-02-16T19:08:42.338Z,97467.31
2023-02-16T19:11:10.409Z,97466.28
2023-02-16T19:13:38.526Z,97460.03
2023-02-16T19:16:07.695Z,97461.63
2023-02-16T19:18:37.314Z,97462.47
2023-02-16T19:21:07.839Z,97466.09
2023-02-16T19:23:37.580Z,97457.38
2023-02-16T19:26:07.755Z,97458.16
2023-02-16T19:28:36.139Z,97457.97
2023-02-16T19:31:07.432Z,97454.31
2023-02-16T19:33:37.782Z,97458.38
2023-02-16T19:36:09.733Z,97459.38
2023-02-16T19:38:38.162Z,97456.53
2023-02-16T19:41:11.482Z,97458.97
2023-02-16T19:43:39.635Z,97462.22
2023-02-16T19:46:08.027Z,97450.25
2023-02-16T19:48:37.847Z,97452.47
2023-02-16T19:51:07.913Z,97447.19
2023-02-16T19:53:38.287Z,97456.31
2023-02-16T19:56:07.930Z,97458.53
2023-02-16T19:58:36.650Z,97453.28
2023-02-16T20:01:08.844Z,97455.91
2023-02-16T20:03:38.638Z,97453.69
2023-02-16T20:06:18.729Z,97454.47
2023-02-16T20:08:48.605Z,97464.00
2023-02-16T20:11:19.883Z,97464.00
2023-02-16T20:13:48.664Z,97463.22
2023-02-16T20:16:19.059Z,97460.75
2023-02-16T20:18:49.440Z,97461.78
2023-02-16T20:21:20.210Z,97466.69
2023-02-16T20:23:51.221Z,97459.97
2023-02-16T20:26:22.749Z,97466.25
2023-02-16T20:28:51.365Z,97462.81
2023-02-16T20:31:24.040Z,97459.34
2023-02-16T20:33:54.063Z,97466.66
2023-02-16T20:36:22.329Z,97471.50
2023-02-16T20:38:51.679Z,97456.69
2023-02-16T20:41:22.179Z,97461.78
2023-02-16T20:43:51.319Z,97455.28
2023-02-16T20:46:20.469Z,97459.16
2023-02-16T20:48:49.980Z,97463.00
2023-02-16T20:51:19.798Z,97470.09
2023-02-16T20:53:48.544Z,97466.03
2023-02-16T20:56:20.666Z,97460.75
2023-02-16T20:58:51.764Z,97461.53
2023-02-16T21:01:24.637Z,97460.75
2023-02-16T21:03:55.393Z,97459.31
2023-02-16T21:06:25.633Z,97450.00
2023-02-16T21:08:53.939Z,97442.66
2023-02-16T21:11:22.667Z,97442.06
2023-02-16T21:13:51.663Z,97443.47
2023-02-16T21:16:21.280Z,97445.50
2023-02-16T21:18:49.421Z,97444.06
2023-02-16T21:21:17.986Z,97444.88
2023-02-16T21:23:50.600Z,97443.25
2023-02-16T21:26:21.845Z,97441.03
2023-02-16T21:28:50.647Z,97437.34
2023-02-16T21:31:22.313Z,97440.38
2023-02-16T21:33:50.633Z,97451.50
2023-02-16T21:36:22.495Z,97444.41
2023-02-16T21:38:52.106Z,97444.78
2023-02-16T21:41:25.890Z,97449.06
2023-02-16T21:43:57.847Z,97444.00
2023-02-16T21:46:26.715Z,97439.88
2023-02-16T21:48:55.194Z,97438.28
2023-02-16T21:51:28.172Z,97433.84
2023-02-16T21:53:58.733Z,97431.97
2023-02-16T21:56:34.332Z,97429.53
2023-02-16T21:59:03.561Z,97427.13
2023-02-16T22:01:37.790Z,97431.97
2023-02-16T22:04:06.919Z,97430.34
2023-02-16T22:06:42.475Z,97427.28
2023-02-16T22:09:15.186Z,97418.94
2023-02-16T22:11:43.333Z,97417.50
2023-02-16T22:14:11.988Z,97419.75
2023-02-16T22:16:40.607Z,97416.06
2023-02-16T22:19:12.838Z,97406.03
2023-02-16T22:21:44.677Z,97409.94
2023-02-16T22:24:16.939Z,97415.19
2023-02-16T22:26:45.805Z,97420.34
2023-02-16T22:29:14.043Z,97420.69
2023-02-16T22:31:46.249Z,97410.94
2023-02-16T22:34:17.079Z,97411.13
2023-02-16T22:36:45.780Z,97415.22
2023-02-16T22:39:19.859Z,97417.47
2023-02-16T22:41:49.852Z,97418.06
2023-02-16T22:44:17.893Z,97408.91
2023-02-16T22:46:45.892Z,97403.03
2023-02-16T22:49:13.966Z,97406.84
2023-02-16T22:51:42.304Z,97410.72
2023-02-16T22:54:14.234Z,97408.69
2023-02-16T22:56:44.092Z,97410.72
2023-02-16T22:59:13.477Z,97407.25
2023-02-16T23:01:41.883Z,97407.84
2023-02-16T23:04:15.600Z,97408.81
2023-02-16T23:06:45.100Z,97408.25
2023-02-16T23:09:16.333Z,97410.63
2023-02-16T23:11:46.170Z,97402.88
2023-02-16T23:14:17.201Z,97401.44
2023-02-16T23:16:46.394Z,97404.09
2023-02-16T23:19:18.217Z,97401.41
2023-02-16T23:21:47.060Z,97406.88
2023-02-16T23:24:18.143Z,97406.00
2023-02-16T23:26:48.425Z,97406.00
2023-02-16T23:29:16.813Z,97404.00
2023-02-16T23:31:47.654Z,97406.44
2023-02-16T23:34:17.202Z,97406.19
2023-02-16T23:36:46.274Z,97403.97
2023-02-16T23:39:17.844Z,97405.41
2023-02-16T23:41:47.249Z,97408.81
2023-02-16T23:44:15.808Z,97401.19
2023-02-16T23:46:43.827Z,97401.16
2023-02-16T23:49:11.955Z,97406.34
2023-02-16T23:51:40.172Z,97404.72
2023-02-16T23:54:10.847Z,97397.47
2023-02-16T23:56:40.438Z,97392.19
2023-02-16T23:59:09.851Z,97388.91
